sensor_id;sensor_type;location;lat;lon;timestamp;P1;durP1;ratioP1;P2;durP2;ratioP2
54454;SDS011;40364;52.270;10.546;2023-02-05T00:00:45;6.03;;;3.00;;
54454;SDS011;40364;52.270;10.546;2023-02-05T00:03:11;5.85;;;3.33;;
54454;SDS011;40364;52.270;10.546;2023-02-05T00:05:41;4.90;;;2.63;;
54454;SDS011;40364;52.270;10.546;2023-02-05T00:08:08;7.97;;;3.03;;
54454;SDS011;40364;52.270;10.546;2023-02-05T00:10:35;5.40;;;2.90;;
54454;SDS011;40364;52.270;10.546;2023-02-05T00:13:02;7.65;;;3.45;;
54454;SDS011;40364;52.270;10.546;2023-02-05T00:15:29;5.20;;;3.25;;
54454;SDS011;40364;52.270;10.546;2023-02-05T00:17:57;8.35;;;3.20;;
54454;SDS011;40364;52.270;10.546;2023-02-05T00:20:24;7.05;;;3.35;;
54454;SDS011;40364;52.270;10.546;2023-02-05T00:22:51;5.82;;;3.03;;
54454;SDS011;40364;52.270;10.546;2023-02-05T00:25:18;6.78;;;3.28;;
54454;SDS011;40364;52.270;10.546;2023-02-05T00:27:44;5.25;;;3.30;;
54454;SDS011;40364;52.270;10.546;2023-02-05T00:30:11;7.32;;;3.38;;
54454;SDS011;40364;52.270;10.546;2023-02-05T00:32:38;5.22;;;2.47;;
54454;SDS011;40364;52.270;10.546;2023-02-05T00:35:07;5.50;;;3.20;;
54454;SDS011;40364;52.270;10.546;2023-02-05T00:37:33;5.30;;;3.15;;
54454;SDS011;40364;52.270;10.546;2023-02-05T00:40:00;5.70;;;3.00;;
54454;SDS011;40364;52.270;10.546;2023-02-05T00:42:28;5.28;;;2.83;;
54454;SDS011;40364;52.270;10.546;2023-02-05T00:44:55;6.70;;;3.35;;
54454;SDS011;40364;52.270;10.546;2023-02-05T00:47:22;5.30;;;2.58;;
54454;SDS011;40364;52.270;10.546;2023-02-05T00:49:49;7.97;;;2.95;;
54454;SDS011;40364;52.270;10.546;2023-02-05T00:52:20;6.95;;;3.10;;
54454;SDS011;40364;52.270;10.546;2023-02-05T00:54:50;5.97;;;2.72;;
54454;SDS011;40364;52.270;10.546;2023-02-05T00:57:17;5.15;;;3.15;;
54454;SDS011;40364;52.270;10.546;2023-02-05T00:59:48;5.00;;;2.92;;
54454;SDS011;40364;52.270;10.546;2023-02-05T01:02:16;4.22;;;2.60;;
54454;SDS011;40364;52.270;10.546;2023-02-05T01:04:47;6.68;;;2.95;;
54454;SDS011;40364;52.270;10.546;2023-02-05T01:07:14;5.68;;;2.88;;
54454;SDS011;40364;52.270;10.546;2023-02-05T01:09:44;5.97;;;2.63;;
54454;SDS011;40364;52.270;10.546;2023-02-05T01:12:14;5.82;;;3.17;;
54454;SDS011;40364;52.270;10.546;2023-02-05T01:14:41;8.65;;;2.80;;
54454;SDS011;40364;52.270;10.546;2023-02-05T01:17:08;13.43;;;2.90;;
54454;SDS011;40364;52.270;10.546;2023-02-05T01:19:35;8.13;;;2.42;;
54454;SDS011;40364;52.270;10.546;2023-02-05T01:22:02;5.97;;;3.03;;
54454;SDS011;40364;52.270;10.546;2023-02-05T01:24:30;5.90;;;2.88;;
54454;SDS011;40364;52.270;10.546;2023-02-05T01:26:58;6.15;;;2.58;;
54454;SDS011;40364;52.270;10.546;2023-02-05T01:29:25;5.85;;;2.90;;
54454;SDS011;40364;52.270;10.546;2023-02-05T01:31:52;5.13;;;2.83;;
54454;SDS011;40364;52.270;10.546;2023-02-05T01:34:19;8.00;;;3.45;;
54454;SDS011;40364;52.270;10.546;2023-02-05T01:36:46;5.78;;;3.28;;
54454;SDS011;40364;52.270;10.546;2023-02-05T01:39:13;14.63;;;3.30;;
54454;SDS011;40364;52.270;10.546;2023-02-05T01:41:40;7.18;;;3.83;;
54454;SDS011;40364;52.270;10.546;2023-02-05T01:44:11;11.13;;;3.92;;
54454;SDS011;40364;52.270;10.546;2023-02-05T01:46:42;5.47;;;3.38;;
54454;SDS011;40364;52.270;10.546;2023-02-05T01:49:13;6.18;;;3.92;;
54454;SDS011;40364;52.270;10.546;2023-02-05T01:51:42;8.20;;;3.60;;
54454;SDS011;40364;52.270;10.546;2023-02-05T01:54:10;8.57;;;3.63;;
54454;SDS011;40364;52.270;10.546;2023-02-05T01:56:38;13.00;;;3.85;;
54454;SDS011;40364;52.270;10.546;2023-02-05T01:59:09;6.75;;;3.67;;
54454;SDS011;40364;52.270;10.546;2023-02-05T02:01:41;6.90;;;3.45;;
54454;SDS011;40364;52.270;10.546;2023-02-05T02:04:09;8.23;;;4.85;;
54454;SDS011;40364;52.270;10.546;2023-02-05T02:06:40;10.98;;;3.47;;
54454;SDS011;40364;52.270;10.546;2023-02-05T02:09:07;5.03;;;2.88;;
54454;SDS011;40364;52.270;10.546;2023-02-05T02:11:36;10.10;;;2.83;;
54454;SDS011;40364;52.270;10.546;2023-02-05T02:14:05;7.20;;;3.92;;
54454;SDS011;40364;52.270;10.546;2023-02-05T02:16:38;6.13;;;3.08;;
54454;SDS011;40364;52.270;10.546;2023-02-05T02:19:08;7.45;;;3.15;;
54454;SDS011;40364;52.270;10.546;2023-02-05T02:24:32;3.45;;;2.17;;
54454;SDS011;40364;52.270;10.546;2023-02-05T02:27:17;5.80;;;3.22;;
54454;SDS011;40364;52.270;10.546;2023-02-05T02:30:08;5.70;;;3.30;;
54454;SDS011;40364;52.270;10.546;2023-02-05T02:32:40;8.15;;;3.75;;
54454;SDS011;40364;52.270;10.546;2023-02-05T02:35:13;6.53;;;3.67;;
54454;SDS011;40364;52.270;10.546;2023-02-05T02:37:47;4.37;;;2.87;;
54454;SDS011;40364;52.270;10.546;2023-02-05T02:40:19;7.70;;;3.72;;
54454;SDS011;40364;52.270;10.546;2023-02-05T02:42:53;6.35;;;3.47;;
54454;SDS011;40364;52.270;10.546;2023-02-05T02:45:26;17.45;;;3.95;;
54454;SDS011;40364;52.270;10.546;2023-02-05T02:47:56;5.72;;;3.42;;
54454;SDS011;40364;52.270;10.546;2023-02-05T02:50:26;8.10;;;3.88;;
54454;SDS011;40364;52.270;10.546;2023-02-05T02:52:58;7.03;;;3.58;;
54454;SDS011;40364;52.270;10.546;2023-02-05T02:55:27;6.78;;;3.45;;
54454;SDS011;40364;52.270;10.546;2023-02-05T02:57:59;8.68;;;3.58;;
54454;SDS011;40364;52.270;10.546;2023-02-05T03:00:27;6.88;;;3.75;;
54454;SDS011;40364;52.270;10.546;2023-02-05T03:02:58;8.15;;;3.85;;
54454;SDS011;40364;52.270;10.546;2023-02-05T03:05:30;6.57;;;3.90;;
54454;SDS011;40364;52.270;10.546;2023-02-05T03:08:00;5.10;;;3.22;;
54454;SDS011;40364;52.270;10.546;2023-02-05T03:10:33;5.18;;;2.88;;
54454;SDS011;40364;52.270;10.546;2023-02-05T03:13:08;6.05;;;3.78;;
54454;SDS011;40364;52.270;10.546;2023-02-05T03:15:36;6.28;;;3.05;;
54454;SDS011;40364;52.270;10.546;2023-02-05T03:18:04;5.20;;;2.58;;
54454;SDS011;40364;52.270;10.546;2023-02-05T03:20:32;5.88;;;3.55;;
54454;SDS011;40364;52.270;10.546;2023-02-05T03:23:04;5.05;;;3.40;;
54454;SDS011;40364;52.270;10.546;2023-02-05T03:25:31;8.23;;;3.30;;
54454;SDS011;40364;52.270;10.546;2023-02-05T03:27:57;6.18;;;3.15;;
54454;SDS011;40364;52.270;10.546;2023-02-05T03:30:27;7.65;;;3.72;;
54454;SDS011;40364;52.270;10.546;2023-02-05T03:32:59;5.38;;;3.10;;
54454;SDS011;40364;52.270;10.546;2023-02-05T03:35:37;11.10;;;3.33;;
54454;SDS011;40364;52.270;10.546;2023-02-05T03:38:13;12.00;;;3.58;;
54454;SDS011;40364;52.270;10.546;2023-02-05T03:40:54;9.88;;;3.33;;
54454;SDS011;40364;52.270;10.546;2023-02-05T03:43:30;7.35;;;3.30;;
54454;SDS011;40364;52.270;10.546;2023-02-05T03:46:06;6.40;;;3.35;;
54454;SDS011;40364;52.270;10.546;2023-02-05T03:48:43;9.45;;;3.60;;
54454;SDS011;40364;52.270;10.546;2023-02-05T03:53:48;5.05;;;3.03;;
54454;SDS011;40364;52.270;10.546;2023-02-05T03:56:26;5.80;;;2.90;;
54454;SDS011;40364;52.270;10.546;2023-02-05T03:58:57;9.07;;;2.92;;
54454;SDS011;40364;52.270;10.546;2023-02-05T04:01:26;5.68;;;3.30;;
54454;SDS011;40364;52.270;10.546;2023-02-05T04:03:54;7.82;;;3.10;;
54454;SDS011;40364;52.270;10.546;2023-02-05T04:06:20;6.10;;;3.03;;
54454;SDS011;40364;52.270;10.546;2023-02-05T04:08:47;8.52;;;3.47;;
54454;SDS011;40364;52.270;10.546;2023-02-05T04:11:14;5.45;;;2.85;;
54454;SDS011;40364;52.270;10.546;2023-02-05T04:13:41;4.57;;;3.05;;
54454;SDS011;40364;52.270;10.546;2023-02-05T04:16:07;7.55;;;3.00;;
54454;SDS011;40364;52.270;10.546;2023-02-05T04:18:35;9.68;;;3.30;;
54454;SDS011;40364;52.270;10.546;2023-02-05T04:21:02;4.32;;;2.65;;
54454;SDS011;40364;52.270;10.546;2023-02-05T04:23:29;7.20;;;3.55;;
54454;SDS011;40364;52.270;10.546;2023-02-05T04:25:56;8.60;;;3.28;;
54454;SDS011;40364;52.270;10.546;2023-02-05T04:28:23;6.68;;;3.40;;
54454;SDS011;40364;52.270;10.546;2023-02-05T04:30:49;10.82;;;3.22;;
54454;SDS011;40364;52.270;10.546;2023-02-05T04:33:17;4.85;;;2.90;;
54454;SDS011;40364;52.270;10.546;2023-02-05T04:35:45;8.52;;;3.60;;
54454;SDS011;40364;52.270;10.546;2023-02-05T04:38:11;6.32;;;2.78;;
54454;SDS011;40364;52.270;10.546;2023-02-05T04:40:38;5.85;;;3.05;;
54454;SDS011;40364;52.270;10.546;2023-02-05T04:43:05;9.73;;;3.90;;
54454;SDS011;40364;52.270;10.546;2023-02-05T04:45:31;6.10;;;3.10;;
54454;SDS011;40364;52.270;10.546;2023-02-05T04:47:58;6.05;;;3.20;;
54454;SDS011;40364;52.270;10.546;2023-02-05T04:50:26;7.53;;;2.80;;
54454;SDS011;40364;52.270;10.546;2023-02-05T04:52:54;5.65;;;3.50;;
54454;SDS011;40364;52.270;10.546;2023-02-05T04:55:21;5.60;;;3.28;;
54454;SDS011;40364;52.270;10.546;2023-02-05T04:57:48;7.57;;;3.90;;
54454;SDS011;40364;52.270;10.546;2023-02-05T05:00:15;5.97;;;3.67;;
54454;SDS011;40364;52.270;10.546;2023-02-05T05:02:42;6.93;;;2.85;;
54454;SDS011;40364;52.270;10.546;2023-02-05T05:05:08;5.70;;;3.40;;
54454;SDS011;40364;52.270;10.546;2023-02-05T05:07:36;5.03;;;2.92;;
54454;SDS011;40364;52.270;10.546;2023-02-05T05:10:05;8.60;;;3.33;;
54454;SDS011;40364;52.270;10.546;2023-02-05T05:12:32;4.47;;;2.70;;
54454;SDS011;40364;52.270;10.546;2023-02-05T05:14:59;6.05;;;3.05;;
54454;SDS011;40364;52.270;10.546;2023-02-05T05:17:26;5.90;;;3.17;;
54454;SDS011;40364;52.270;10.546;2023-02-05T05:19:53;6.47;;;2.72;;
54454;SDS011;40364;52.270;10.546;2023-02-05T05:22:20;7.68;;;2.78;;
54454;SDS011;40364;52.270;10.546;2023-02-05T05:24:46;5.65;;;3.60;;
54454;SDS011;40364;52.270;10.546;2023-02-05T05:27:15;5.72;;;2.88;;
54454;SDS011;40364;52.270;10.546;2023-02-05T05:29:42;4.70;;;2.83;;
54454;SDS011;40364;52.270;10.546;2023-02-05T05:32:10;4.32;;;2.42;;
54454;SDS011;40364;52.270;10.546;2023-02-05T05:34:37;4.97;;;2.70;;
54454;SDS011;40364;52.270;10.546;2023-02-05T05:37:04;12.95;;;2.97;;
54454;SDS011;40364;52.270;10.546;2023-02-05T05:39:31;6.05;;;3.15;;
54454;SDS011;40364;52.270;10.546;2023-02-05T05:42:16;5.45;;;3.08;;
54454;SDS011;40364;52.270;10.546;2023-02-05T05:45:00;7.72;;;2.88;;
54454;SDS011;40364;52.270;10.546;2023-02-05T05:47:27;5.82;;;2.50;;
54454;SDS011;40364;52.270;10.546;2023-02-05T05:49:54;6.00;;;3.10;;
54454;SDS011;40364;52.270;10.546;2023-02-05T05:52:21;6.93;;;3.00;;
54454;SDS011;40364;52.270;10.546;2023-02-05T05:54:48;4.50;;;2.80;;
54454;SDS011;40364;52.270;10.546;2023-02-05T05:57:16;7.15;;;2.78;;
54454;SDS011;40364;52.270;10.546;2023-02-05T05:59:43;5.55;;;2.83;;
54454;SDS011;40364;52.270;10.546;2023-02-05T06:02:10;4.05;;;2.47;;
54454;SDS011;40364;52.270;10.546;2023-02-05T06:04:36;6.40;;;2.17;;
54454;SDS011;40364;52.270;10.546;2023-02-05T06:07:03;4.68;;;2.50;;
54454;SDS011;40364;52.270;10.546;2023-02-05T06:09:30;4.45;;;2.55;;
54454;SDS011;40364;52.270;10.546;2023-02-05T06:11:56;5.15;;;2.75;;
54454;SDS011;40364;52.270;10.546;2023-02-05T06:14:25;5.90;;;2.42;;
54454;SDS011;40364;52.270;10.546;2023-02-05T06:16:51;5.32;;;2.25;;
54454;SDS011;40364;52.270;10.546;2023-02-05T06:19:19;9.57;;;2.65;;
54454;SDS011;40364;52.270;10.546;2023-02-05T06:21:46;4.70;;;2.40;;
54454;SDS011;40364;52.270;10.546;2023-02-05T06:24:13;4.47;;;2.15;;
54454;SDS011;40364;52.270;10.546;2023-02-05T06:26:40;7.40;;;2.42;;
54454;SDS011;40364;52.270;10.546;2023-02-05T06:29:06;4.32;;;2.17;;
54454;SDS011;40364;52.270;10.546;2023-02-05T06:31:34;5.82;;;2.03;;
54454;SDS011;40364;52.270;10.546;2023-02-05T06:34:01;6.00;;;2.35;;
54454;SDS011;40364;52.270;10.546;2023-02-05T06:36:28;4.75;;;2.63;;
54454;SDS011;40364;52.270;10.546;2023-02-05T06:38:54;4.20;;;2.13;;
54454;SDS011;40364;52.270;10.546;2023-02-05T06:41:21;4.80;;;2.50;;
54454;SDS011;40364;52.270;10.546;2023-02-05T06:43:48;3.92;;;2.40;;
54454;SDS011;40364;52.270;10.546;2023-02-05T06:46:14;4.68;;;2.50;;
54454;SDS011;40364;52.270;10.546;2023-02-05T06:48:42;4.22;;;2.25;;
54454;SDS011;40364;52.270;10.546;2023-02-05T06:51:09;4.95;;;2.17;;
54454;SDS011;40364;52.270;10.546;2023-02-05T06:53:37;5.53;;;2.47;;
54454;SDS011;40364;52.270;10.546;2023-02-05T06:56:04;4.55;;;2.90;;
54454;SDS011;40364;52.270;10.546;2023-02-05T06:58:32;4.95;;;2.20;;
54454;SDS011;40364;52.270;10.546;2023-02-05T07:00:58;5.53;;;2.80;;
54454;SDS011;40364;52.270;10.546;2023-02-05T07:03:25;4.50;;;2.25;;
54454;SDS011;40364;52.270;10.546;2023-02-05T07:05:53;5.95;;;2.80;;
54454;SDS011;40364;52.270;10.546;2023-02-05T07:08:20;4.47;;;2.38;;
54454;SDS011;40364;52.270;10.546;2023-02-05T07:10:46;10.50;;;2.83;;
54454;SDS011;40364;52.270;10.546;2023-02-05T07:13:13;6.43;;;2.90;;
54454;SDS011;40364;52.270;10.546;2023-02-05T07:15:39;4.90;;;2.58;;
54454;SDS011;40364;52.270;10.546;2023-02-05T07:18:06;4.18;;;2.15;;
54454;SDS011;40364;52.270;10.546;2023-02-05T07:20:33;5.32;;;2.50;;
54454;SDS011;40364;52.270;10.546;2023-02-05T07:23:01;9.48;;;3.28;;
54454;SDS011;40364;52.270;10.546;2023-02-05T07:25:29;4.57;;;2.30;;
54454;SDS011;40364;52.270;10.546;2023-02-05T07:28:00;5.80;;;2.30;;
54454;SDS011;40364;52.270;10.546;2023-02-05T07:30:27;4.07;;;2.80;;
54454;SDS011;40364;52.270;10.546;2023-02-05T07:32:53;7.40;;;3.00;;
54454;SDS011;40364;52.270;10.546;2023-02-05T07:35:20;6.45;;;2.65;;
54454;SDS011;40364;52.270;10.546;2023-02-05T07:37:46;9.75;;;2.50;;
54454;SDS011;40364;52.270;10.546;2023-02-05T07:40:15;8.80;;;2.90;;
54454;SDS011;40364;52.270;10.546;2023-02-05T07:42:41;4.80;;;2.60;;
54454;SDS011;40364;52.270;10.546;2023-02-05T07:45:08;5.65;;;3.08;;
54454;SDS011;40364;52.270;10.546;2023-02-05T07:47:35;7.07;;;2.95;;
54454;SDS011;40364;52.270;10.546;2023-02-05T07:50:02;5.35;;;3.38;;
54454;SDS011;40364;52.270;10.546;2023-02-05T07:52:30;4.43;;;2.50;;
54454;SDS011;40364;52.270;10.546;2023-02-05T07:54:57;9.98;;;3.25;;
54454;SDS011;40364;52.270;10.546;2023-02-05T07:57:25;8.20;;;3.55;;
54454;SDS011;40364;52.270;10.546;2023-02-05T07:59:52;5.75;;;3.22;;
54454;SDS011;40364;52.270;10.546;2023-02-05T08:02:18;9.38;;;2.92;;
54454;SDS011;40364;52.270;10.546;2023-02-05T08:04:45;8.05;;;2.97;;
54454;SDS011;40364;52.270;10.546;2023-02-05T08:07:12;6.65;;;2.92;;
54454;SDS011;40364;52.270;10.546;2023-02-05T08:09:39;6.10;;;2.97;;
54454;SDS011;40364;52.270;10.546;2023-02-05T08:12:06;5.00;;;3.28;;
54454;SDS011;40364;52.270;10.546;2023-02-05T08:14:34;7.10;;;3.50;;
54454;SDS011;40364;52.270;10.546;2023-02-05T08:17:01;6.15;;;3.42;;
54454;SDS011;40364;52.270;10.546;2023-02-05T08:19:31;7.43;;;3.22;;
54454;SDS011;40364;52.270;10.546;2023-02-05T08:21:58;4.88;;;3.38;;
54454;SDS011;40364;52.270;10.546;2023-02-05T08:24:25;5.75;;;3.20;;
54454;SDS011;40364;52.270;10.546;2023-02-05T08:26:52;9.88;;;3.53;;
54454;SDS011;40364;52.270;10.546;2023-02-05T08:29:19;6.20;;;3.55;;
54454;SDS011;40364;52.270;10.546;2023-02-05T08:31:47;7.60;;;4.05;;
54454;SDS011;40364;52.270;10.546;2023-02-05T08:34:14;7.57;;;3.78;;
54454;SDS011;40364;52.270;10.546;2023-02-05T08:36:41;5.30;;;3.22;;
54454;SDS011;40364;52.270;10.546;2023-02-05T08:39:07;5.57;;;3.70;;
54454;SDS011;40364;52.270;10.546;2023-02-05T08:41:34;6.30;;;3.60;;
54454;SDS011;40364;52.270;10.546;2023-02-05T08:44:01;6.95;;;4.20;;
54454;SDS011;40364;52.270;10.546;2023-02-05T08:46:28;6.90;;;3.38;;
54454;SDS011;40364;52.270;10.546;2023-02-05T08:48:56;7.93;;;3.95;;
54454;SDS011;40364;52.270;10.546;2023-02-05T08:51:23;10.70;;;3.40;;
54454;SDS011;40364;52.270;10.546;2023-02-05T08:53:50;7.63;;;3.65;;
54454;SDS011;40364;52.270;10.546;2023-02-05T08:56:17;8.32;;;3.60;;
54454;SDS011;40364;52.270;10.546;2023-02-05T08:58:44;8.57;;;3.88;;
54454;SDS011;40364;52.270;10.546;2023-02-05T09:01:12;9.02;;;4.00;;
54454;SDS011;40364;52.270;10.546;2023-02-05T09:03:41;6.38;;;3.13;;
54454;SDS011;40364;52.270;10.546;2023-02-05T09:06:09;9.68;;;3.70;;
54454;SDS011;40364;52.270;10.546;2023-02-05T09:08:38;9.70;;;3.88;;
54454;SDS011;40364;52.270;10.546;2023-02-05T09:11:05;7.20;;;4.25;;
54454;SDS011;40364;52.270;10.546;2023-02-05T09:13:32;6.18;;;3.90;;
54454;SDS011;40364;52.270;10.546;2023-02-05T09:15:59;5.97;;;3.30;;
54454;SDS011;40364;52.270;10.546;2023-02-05T09:18:26;6.93;;;3.97;;
54454;SDS011;40364;52.270;10.546;2023-02-05T09:20:53;7.32;;;3.40;;
54454;SDS011;40364;52.270;10.546;2023-02-05T09:23:22;7.22;;;3.65;;
54454;SDS011;40364;52.270;10.546;2023-02-05T09:25:49;8.93;;;4.15;;
54454;SDS011;40364;52.270;10.546;2023-02-05T09:28:16;6.55;;;3.85;;
54454;SDS011;40364;52.270;10.546;2023-02-05T09:30:44;6.43;;;4.28;;
54454;SDS011;40364;52.270;10.546;2023-02-05T09:33:11;6.88;;;3.42;;
54454;SDS011;40364;52.270;10.546;2023-02-05T09:35:38;5.40;;;3.63;;
54454;SDS011;40364;52.270;10.546;2023-02-05T09:38:06;7.00;;;3.67;;
54454;SDS011;40364;52.270;10.546;2023-02-05T09:40:37;8.32;;;3.53;;
54454;SDS011;40364;52.270;10.546;2023-02-05T09:43:14;6.00;;;3.63;;
54454;SDS011;40364;52.270;10.546;2023-02-05T09:45:54;6.35;;;4.10;;
54454;SDS011;40364;52.270;10.546;2023-02-05T09:48:32;6.43;;;3.50;;
54454;SDS011;40364;52.270;10.546;2023-02-05T09:51:13;9.50;;;3.65;;
54454;SDS011;40364;52.270;10.546;2023-02-05T09:53:43;6.35;;;3.78;;
54454;SDS011;40364;52.270;10.546;2023-02-05T09:56:14;8.35;;;3.70;;
54454;SDS011;40364;52.270;10.546;2023-02-05T09:58:43;7.28;;;3.50;;
54454;SDS011;40364;52.270;10.546;2023-02-05T10:01:13;6.45;;;3.55;;
54454;SDS011;40364;52.270;10.546;2023-02-05T10:03:47;5.72;;;3.70;;
54454;SDS011;40364;52.270;10.546;2023-02-05T10:09:24;9.00;;;3.85;;
54454;SDS011;40364;52.270;10.546;2023-02-05T10:12:09;5.47;;;3.58;;
54454;SDS011;40364;52.270;10.546;2023-02-05T10:14:51;12.25;;;4.10;;
54454;SDS011;40364;52.270;10.546;2023-02-05T10:17:33;8.15;;;3.65;;
54454;SDS011;40364;52.270;10.546;2023-02-05T10:20:17;8.23;;;3.35;;
54454;SDS011;40364;52.270;10.546;2023-02-05T10:22:55;7.13;;;3.50;;
54454;SDS011;40364;52.270;10.546;2023-02-05T10:31:36;9.77;;;4.20;;
54454;SDS011;40364;52.270;10.546;2023-02-05T10:34:12;7.88;;;3.85;;
54454;SDS011;40364;52.270;10.546;2023-02-05T10:36:43;9.15;;;3.83;;
54454;SDS011;40364;52.270;10.546;2023-02-05T10:39:15;9.15;;;3.50;;
54454;SDS011;40364;52.270;10.546;2023-02-05T10:41:45;7.65;;;3.20;;
54454;SDS011;40364;52.270;10.546;2023-02-05T10:44:19;8.07;;;3.97;;
54454;SDS011;40364;52.270;10.546;2023-02-05T10:46:53;8.13;;;3.85;;
54454;SDS011;40364;52.270;10.546;2023-02-05T10:49:29;5.43;;;3.50;;
54454;SDS011;40364;52.270;10.546;2023-02-05T10:52:08;8.07;;;3.60;;
54454;SDS011;40364;52.270;10.546;2023-02-05T10:54:37;7.65;;;3.53;;
54454;SDS011;40364;52.270;10.546;2023-02-05T10:57:09;5.97;;;3.72;;
54454;SDS011;40364;52.270;10.546;2023-02-05T10:59:40;5.75;;;3.60;;
54454;SDS011;40364;52.270;10.546;2023-02-05T11:02:14;7.88;;;4.10;;
54454;SDS011;40364;52.270;10.546;2023-02-05T11:04:43;4.68;;;3.10;;
54454;SDS011;40364;52.270;10.546;2023-02-05T11:07:15;5.32;;;3.45;;
54454;SDS011;40364;52.270;10.546;2023-02-05T11:09:48;9.82;;;3.97;;
54454;SDS011;40364;52.270;10.546;2023-02-05T11:12:18;7.25;;;3.50;;
54454;SDS011;40364;52.270;10.546;2023-02-05T11:14:56;6.38;;;3.38;;
54454;SDS011;40364;52.270;10.546;2023-02-05T11:17:25;6.47;;;4.05;;
54454;SDS011;40364;52.270;10.546;2023-02-05T11:19:58;6.82;;;3.72;;
54454;SDS011;40364;52.270;10.546;2023-02-05T11:22:27;8.43;;;4.25;;
54454;SDS011;40364;52.270;10.546;2023-02-05T11:25:03;7.82;;;3.83;;
54454;SDS011;40364;52.270;10.546;2023-02-05T11:27:32;6.75;;;4.13;;
54454;SDS011;40364;52.270;10.546;2023-02-05T11:32:44;8.45;;;4.10;;
54454;SDS011;40364;52.270;10.546;2023-02-05T11:35:18;5.95;;;3.65;;
54454;SDS011;40364;52.270;10.546;2023-02-05T11:37:47;7.18;;;4.65;;
54454;SDS011;40364;52.270;10.546;2023-02-05T11:40:22;8.00;;;3.88;;
54454;SDS011;40364;52.270;10.546;2023-02-05T11:42:57;6.72;;;3.35;;
54454;SDS011;40364;52.270;10.546;2023-02-05T11:45:27;7.47;;;3.70;;
54454;SDS011;40364;52.270;10.546;2023-02-05T11:47:55;6.25;;;3.50;;
54454;SDS011;40364;52.270;10.546;2023-02-05T11:50:26;6.97;;;3.75;;
54454;SDS011;40364;52.270;10.546;2023-02-05T11:52:55;8.15;;;3.90;;
54454;SDS011;40364;52.270;10.546;2023-02-05T11:55:33;7.10;;;3.72;;
54454;SDS011;40364;52.270;10.546;2023-02-05T11:58:01;9.32;;;3.75;;
54454;SDS011;40364;52.270;10.546;2023-02-05T12:00:31;8.80;;;4.07;;
54454;SDS011;40364;52.270;10.546;2023-02-05T12:03:03;6.63;;;3.53;;
54454;SDS011;40364;52.270;10.546;2023-02-05T12:05:33;7.78;;;3.58;;
54454;SDS011;40364;52.270;10.546;2023-02-05T12:08:09;7.25;;;3.63;;
54454;SDS011;40364;52.270;10.546;2023-02-05T12:10:45;7.53;;;3.65;;
54454;SDS011;40364;52.270;10.546;2023-02-05T12:13:23;5.28;;;3.22;;
54454;SDS011;40364;52.270;10.546;2023-02-05T12:15:56;6.00;;;3.38;;
54454;SDS011;40364;52.270;10.546;2023-02-05T12:21:07;7.78;;;3.75;;
54454;SDS011;40364;52.270;10.546;2023-02-05T12:23:50;6.35;;;3.03;;
54454;SDS011;40364;52.270;10.546;2023-02-05T12:26:34;6.20;;;3.70;;
54454;SDS011;40364;52.270;10.546;2023-02-05T12:29:07;6.38;;;3.97;;
54454;SDS011;40364;52.270;10.546;2023-02-05T12:32:02;6.28;;;3.67;;
54454;SDS011;40364;52.270;10.546;2023-02-05T12:34:39;7.53;;;3.90;;
54454;SDS011;40364;52.270;10.546;2023-02-05T12:37:21;7.07;;;3.47;;
54454;SDS011;40364;52.270;10.546;2023-02-05T12:39:57;8.73;;;4.53;;
54454;SDS011;40364;52.270;10.546;2023-02-05T12:42:32;8.63;;;4.28;;
54454;SDS011;40364;52.270;10.546;2023-02-05T12:45:04;6.55;;;3.58;;
54454;SDS011;40364;52.270;10.546;2023-02-05T12:47:52;6.47;;;3.50;;
54454;SDS011;40364;52.270;10.546;2023-02-05T12:50:42;5.15;;;3.15;;
54454;SDS011;40364;52.270;10.546;2023-02-05T12:53:22;10.75;;;3.78;;
54454;SDS011;40364;52.270;10.546;2023-02-05T12:56:05;5.53;;;3.08;;
54454;SDS011;40364;52.270;10.546;2023-02-05T12:58:55;7.82;;;3.15;;
54454;SDS011;40364;52.270;10.546;2023-02-05T13:01:28;7.53;;;3.30;;
54454;SDS011;40364;52.270;10.546;2023-02-05T13:04:04;4.07;;;2.83;;
54454;SDS011;40364;52.270;10.546;2023-02-05T13:06:40;5.70;;;3.25;;
54454;SDS011;40364;52.270;10.546;2023-02-05T13:09:15;8.63;;;3.30;;
54454;SDS011;40364;52.270;10.546;2023-02-05T13:11:46;7.88;;;4.03;;
54454;SDS011;40364;52.270;10.546;2023-02-05T13:14:20;9.20;;;3.33;;
54454;SDS011;40364;52.270;10.546;2023-02-05T13:16:51;5.63;;;3.55;;
54454;SDS011;40364;52.270;10.546;2023-02-05T13:19:23;7.10;;;3.65;;
54454;SDS011;40364;52.270;10.546;2023-02-05T13:21:54;5.13;;;3.70;;
54454;SDS011;40364;52.270;10.546;2023-02-05T13:27:27;7.05;;;3.83;;
54454;SDS011;40364;52.270;10.546;2023-02-05T13:30:16;6.43;;;3.67;;
54454;SDS011;40364;52.270;10.546;2023-02-05T13:32:48;8.45;;;3.63;;
54454;SDS011;40364;52.270;10.546;2023-02-05T13:35:19;5.55;;;3.20;;
54454;SDS011;40364;52.270;10.546;2023-02-05T13:37:51;6.85;;;3.47;;
54454;SDS011;40364;52.270;10.546;2023-02-05T13:40:43;11.45;;;4.65;;
54454;SDS011;40364;52.270;10.546;2023-02-05T13:43:40;5.93;;;3.67;;
54454;SDS011;40364;52.270;10.546;2023-02-05T13:58:17;7.22;;;3.72;;
54454;SDS011;40364;52.270;10.546;2023-02-05T14:00:53;7.88;;;3.58;;
54454;SDS011;40364;52.270;10.546;2023-02-05T14:03:26;7.25;;;3.70;;
54454;SDS011;40364;52.270;10.546;2023-02-05T14:05:59;5.45;;;3.28;;
54454;SDS011;40364;52.270;10.546;2023-02-05T14:08:38;5.80;;;3.63;;
54454;SDS011;40364;52.270;10.546;2023-02-05T14:11:05;6.57;;;3.30;;
54454;SDS011;40364;52.270;10.546;2023-02-05T14:13:34;4.78;;;3.20;;
54454;SDS011;40364;52.270;10.546;2023-02-05T14:19:14;6.72;;;3.20;;
54454;SDS011;40364;52.270;10.546;2023-02-05T14:24:44;5.35;;;3.40;;
54454;SDS011;40364;52.270;10.546;2023-02-05T14:27:20;7.70;;;3.28;;
54454;SDS011;40364;52.270;10.546;2023-02-05T14:33:26;12.88;;;4.43;;
54454;SDS011;40364;52.270;10.546;2023-02-05T14:35:55;10.52;;;4.18;;
54454;SDS011;40364;52.270;10.546;2023-02-05T14:38:23;7.03;;;3.35;;
54454;SDS011;40364;52.270;10.546;2023-02-05T14:41:00;8.05;;;4.18;;
54454;SDS011;40364;52.270;10.546;2023-02-05T14:43:33;7.70;;;4.03;;
54454;SDS011;40364;52.270;10.546;2023-02-05T14:46:04;6.68;;;3.22;;
54454;SDS011;40364;52.270;10.546;2023-02-05T14:48:32;8.15;;;3.35;;
54454;SDS011;40364;52.270;10.546;2023-02-05T14:51:06;7.70;;;3.30;;
54454;SDS011;40364;52.270;10.546;2023-02-05T14:53:39;6.40;;;3.08;;
54454;SDS011;40364;52.270;10.546;2023-02-05T14:56:21;5.22;;;3.00;;
54454;SDS011;40364;52.270;10.546;2023-02-05T14:58:56;5.10;;;3.05;;
54454;SDS011;40364;52.270;10.546;2023-02-05T15:01:39;8.88;;;3.78;;
54454;SDS011;40364;52.270;10.546;2023-02-05T15:04:22;6.93;;;3.20;;
54454;SDS011;40364;52.270;10.546;2023-02-05T15:06:54;7.75;;;3.67;;
54454;SDS011;40364;52.270;10.546;2023-02-05T15:09:30;6.68;;;4.05;;
54454;SDS011;40364;52.270;10.546;2023-02-05T15:12:14;8.65;;;4.55;;
54454;SDS011;40364;52.270;10.546;2023-02-05T15:14:54;8.43;;;3.88;;
54454;SDS011;40364;52.270;10.546;2023-02-05T15:17:35;6.90;;;4.63;;
54454;SDS011;40364;52.270;10.546;2023-02-05T15:20:17;7.45;;;4.03;;
54454;SDS011;40364;52.270;10.546;2023-02-05T15:22:50;9.95;;;4.43;;
54454;SDS011;40364;52.270;10.546;2023-02-05T15:25:24;7.00;;;4.10;;
54454;SDS011;40364;52.270;10.546;2023-02-05T15:27:58;8.90;;;4.40;;
54454;SDS011;40364;52.270;10.546;2023-02-05T15:30:29;7.03;;;4.30;;
54454;SDS011;40364;52.270;10.546;2023-02-05T15:33:14;8.30;;;4.88;;
54454;SDS011;40364;52.270;10.546;2023-02-05T15:35:46;6.93;;;4.18;;
54454;SDS011;40364;52.270;10.546;2023-02-05T15:38:22;8.93;;;4.70;;